createdAt,value
2019-02-26T00:01:23.454Z,1.90
2019-02-26T00:03:49.530Z,1.90
2019-02-26T00:06:18.547Z,1.80
2019-02-26T00:08:47.210Z,1.80
2019-02-26T00:11:13.502Z,1.90
2019-02-26T00:13:39.963Z,1.80
2019-02-26T00:16:08.030Z,1.80
2019-02-26T00:18:34.753Z,1.80
2019-02-26T00:21:02.857Z,1.70
2019-02-26T00:23:30.046Z,1.60
2019-02-26T00:25:56.644Z,1.70
2019-02-26T00:28:23.086Z,1.70
2019-02-26T00:30:49.542Z,1.70
2019-02-26T00:33:16.874Z,1.50
2019-02-26T00:35:45.962Z,1.40
2019-02-26T00:38:13.404Z,1.40
2019-02-26T00:40:41.403Z,1.50
2019-02-26T00:43:09.039Z,1.50
2019-02-26T00:45:38.509Z,1.50
2019-02-26T00:48:03.927Z,1.50
2019-02-26T00:50:32.648Z,1.30
2019-02-26T00:52:59.379Z,1.20
2019-02-26T00:55:29.358Z,1.30
2019-02-26T00:57:57.054Z,1.30
2019-02-26T01:00:24.640Z,1.30
2019-02-26T01:02:51.866Z,1.30
2019-02-26T01:05:18.340Z,1.50
2019-02-26T01:07:46.928Z,1.60
2019-02-26T01:10:14.342Z,1.50
2019-02-26T01:12:42.568Z,1.50
2019-02-26T01:15:17.492Z,1.60
2019-02-26T01:17:44.003Z,1.60
2019-02-26T01:20:15.067Z,1.80
2019-02-26T01:22:42.761Z,1.70
2019-02-26T01:25:12.126Z,1.70
2019-02-26T01:27:38.273Z,1.70
2019-02-26T01:30:11.222Z,1.60
2019-02-26T01:32:37.752Z,1.60
2019-02-26T01:35:05.930Z,1.60
2019-02-26T01:37:34.302Z,1.60
2019-02-26T01:40:00.964Z,1.60
2019-02-26T01:42:29.308Z,1.70
2019-02-26T01:44:55.774Z,1.70
2019-02-26T01:47:24.110Z,1.60
2019-02-26T01:49:51.126Z,1.70
2019-02-26T01:52:17.749Z,1.70
2019-02-26T01:54:44.169Z,1.80
2019-02-26T01:57:10.618Z,1.70
2019-02-26T01:59:37.089Z,1.70
2019-02-26T02:02:04.641Z,1.70
2019-02-26T02:04:32.092Z,1.70
2019-02-26T02:07:01.378Z,1.70
2019-02-26T02:09:27.512Z,1.70
2019-02-26T02:11:57.369Z,1.70
2019-02-26T02:14:22.501Z,1.70
2019-02-26T02:16:49.033Z,1.70
2019-02-26T02:19:18.109Z,1.80
2019-02-26T02:21:43.962Z,1.90
2019-02-26T02:24:12.684Z,1.90
2019-02-26T02:26:41.038Z,1.80
2019-02-26T02:29:06.923Z,1.80
2019-02-26T02:31:34.817Z,1.80
2019-02-26T02:34:01.612Z,1.90
2019-02-26T02:36:28.168Z,1.70
2019-02-26T02:38:54.634Z,1.80
2019-02-26T02:41:21.178Z,1.80
2019-02-26T02:43:47.644Z,1.80
2019-02-26T02:46:14.055Z,1.90
2019-02-26T02:48:40.578Z,1.80
2019-02-26T02:51:08.476Z,1.80
2019-02-26T02:53:35.288Z,1.90
2019-02-26T02:56:03.548Z,1.80
2019-02-26T02:58:29.945Z,1.90
2019-02-26T03:00:57.151Z,2.00
2019-02-26T03:03:24.595Z,2.00
2019-02-26T03:05:51.081Z,1.80
2019-02-26T03:08:19.431Z,1.90
2019-02-26T03:10:45.731Z,2.00
2019-02-26T03:13:14.247Z,2.10
2019-02-26T03:15:40.387Z,2.10
2019-02-26T03:18:09.407Z,2.00
2019-02-26T03:20:39.737Z,1.90
2019-02-26T03:23:04.568Z,1.90
2019-02-26T03:25:31.550Z,2.00
2019-02-26T03:27:58.000Z,2.00
2019-02-26T03:30:31.864Z,2.00
2019-02-26T03:32:58.413Z,1.90
2019-02-26T03:35:23.416Z,1.90
2019-02-26T03:37:51.617Z,2.00
2019-02-26T03:40:17.940Z,2.00
2019-02-26T03:42:46.305Z,2.00
2019-02-26T03:45:16.019Z,1.80
2019-02-26T03:47:42.772Z,2.00
2019-02-26T03:50:11.618Z,2.10
2019-02-26T03:52:38.068Z,2.00
2019-02-26T03:55:08.209Z,1.80
2019-02-26T03:57:33.893Z,1.80
2019-02-26T04:00:00.345Z,1.90
2019-02-26T04:02:26.806Z,1.90
2019-02-26T04:04:54.453Z,1.90
2019-02-26T04:07:22.839Z,1.90
2019-02-26T04:09:52.514Z,1.80
2019-02-26T04:12:18.922Z,1.70
2019-02-26T04:14:46.545Z,1.70
2019-02-26T04:17:13.007Z,1.80
2019-02-26T04:19:43.547Z,1.90
2019-02-26T04:22:30.647Z,1.90
2019-02-26T04:25:06.339Z,1.80
2019-02-26T04:27:47.652Z,1.90
2019-02-26T04:30:34.040Z,1.80
2019-02-26T04:33:35.987Z,1.80
2019-02-26T04:36:09.757Z,1.70
2019-02-26T04:39:03.916Z,1.70
2019-02-26T04:41:35.968Z,1.70
2019-02-26T04:44:19.452Z,1.60
2019-02-26T04:46:51.543Z,1.60
2019-02-26T04:49:18.602Z,1.70
2019-02-26T04:51:47.853Z,1.60
2019-02-26T04:54:21.090Z,1.60
2019-02-26T04:56:44.995Z,1.30
2019-02-26T04:59:12.533Z,1.50
2019-02-26T05:01:39.440Z,1.70
2019-02-26T05:04:05.873Z,1.70
2019-02-26T05:06:32.305Z,1.80
2019-02-26T05:09:00.208Z,1.80
2019-02-26T05:11:31.578Z,1.90
2019-02-26T05:13:55.226Z,1.90
2019-02-26T05:16:21.682Z,1.90
2019-02-26T05:18:51.582Z,2.00
2019-02-26T05:21:17.338Z,1.80
2019-02-26T05:23:43.803Z,1.50
2019-02-26T05:26:11.721Z,1.50
2019-02-26T05:28:40.866Z,1.60
2019-02-26T05:31:09.039Z,1.40
2019-02-26T05:33:35.256Z,1.30
2019-02-26T05:36:03.448Z,1.40
2019-02-26T05:38:32.478Z,1.30
2019-02-26T05:40:58.208Z,1.40
2019-02-26T05:43:26.316Z,1.30
2019-02-26T05:45:54.917Z,1.40
2019-02-26T05:48:23.067Z,1.40
2019-02-26T05:50:49.379Z,1.50
2019-02-26T05:53:15.828Z,1.50
2019-02-26T05:55:44.328Z,1.50
2019-02-26T05:58:12.579Z,1.60
2019-02-26T06:00:39.801Z,1.50
2019-02-26T06:03:09.643Z,1.40
2019-02-26T06:05:34.602Z,1.40
2019-02-26T06:08:01.039Z,1.50
2019-02-26T06:10:29.826Z,1.60
2019-02-26T06:12:55.792Z,1.60
2019-02-26T06:15:23.018Z,1.50
2019-02-26T06:17:51.524Z,1.40
2019-02-26T06:20:23.664Z,1.60
2019-02-26T06:22:49.917Z,1.60
2019-02-26T06:25:23.024Z,1.70
2019-02-26T06:27:44.674Z,1.80
2019-02-26T06:30:12.820Z,1.70
2019-02-26T06:32:41.836Z,1.70
2019-02-26T06:35:11.083Z,1.90
2019-02-26T06:37:40.277Z,1.90
2019-02-26T06:40:09.132Z,1.90
2019-02-26T06:42:37.870Z,2.00
2019-02-26T06:45:08.507Z,1.90
2019-02-26T06:47:35.159Z,1.80
2019-02-26T06:50:02.944Z,1.90
2019-02-26T06:52:29.884Z,1.90
2019-02-26T06:54:59.994Z,2.00
2019-02-26T06:57:25.962Z,1.90
2019-02-26T06:59:53.677Z,1.90
2019-02-26T07:02:20.673Z,2.00
2019-02-26T07:04:47.110Z,2.20
2019-02-26T07:07:14.410Z,2.30
2019-02-26T07:09:42.064Z,2.40
2019-02-26T07:12:09.298Z,2.40
2019-02-26T07:14:35.749Z,2.40
2019-02-26T07:17:02.192Z,2.20
2019-02-26T07:19:30.742Z,2.20
2019-02-26T07:21:56.872Z,2.30
2019-02-26T07:24:24.769Z,2.40
2019-02-26T07:26:51.797Z,2.40
2019-02-26T07:29:18.233Z,2.50
2019-02-26T07:31:44.673Z,2.60
2019-02-26T07:34:11.144Z,2.60
2019-02-26T07:36:37.609Z,2.70
2019-02-26T07:39:06.690Z,2.70
2019-02-26T07:41:35.040Z,2.80
2019-02-26T07:44:01.610Z,2.70
2019-02-26T07:46:28.034Z,2.80
2019-02-26T07:48:56.710Z,2.90
2019-02-26T07:51:22.693Z,3.00
2019-02-26T07:53:51.161Z,2.90
2019-02-26T07:56:17.499Z,3.00
2019-02-26T07:58:43.959Z,3.10
2019-02-26T08:01:10.379Z,3.10
2019-02-26T08:03:36.920Z,3.40
2019-02-26T08:06:06.308Z,3.60
2019-02-26T08:08:31.693Z,3.60
2019-02-26T08:10:58.325Z,3.90
2019-02-26T08:13:26.877Z,4.00
2019-02-26T08:15:54.970Z,4.10
2019-02-26T08:18:21.246Z,4.30
2019-02-26T08:20:47.707Z,4.30
2019-02-26T08:23:14.788Z,4.40
2019-02-26T08:25:42.381Z,4.50
2019-02-26T08:28:08.828Z,4.50
2019-02-26T08:30:35.360Z,4.50
2019-02-26T08:33:04.689Z,4.60
2019-02-26T08:35:30.270Z,4.80
2019-02-26T08:37:56.733Z,4.80
2019-02-26T08:40:23.169Z,4.90
2019-02-26T08:42:49.667Z,5.10
2019-02-26T08:45:20.408Z,5.20
2019-02-26T08:47:46.897Z,5.30
2019-02-26T08:50:14.840Z,5.40
2019-02-26T08:52:41.868Z,5.40
2019-02-26T08:55:16.132Z,5.40
2019-02-26T08:57:42.861Z,5.50
2019-02-26T09:00:12.327Z,5.50
2019-02-26T09:02:38.972Z,5.60
2019-02-26T09:05:09.876Z,5.80
2019-02-26T09:07:37.887Z,5.80
2019-02-26T09:10:12.493Z,5.90
2019-02-26T09:12:40.870Z,5.80
2019-02-26T09:15:09.723Z,5.80
2019-02-26T09:17:37.099Z,6.00
2019-02-26T09:20:09.597Z,6.40
2019-02-26T09:22:36.242Z,6.50
2019-02-26T09:25:04.426Z,6.60
2019-02-26T09:27:32.093Z,6.50
2019-02-26T09:29:59.069Z,6.80
2019-02-26T09:32:25.508Z,6.90
2019-02-26T09:34:52.484Z,7.00
2019-02-26T09:37:20.190Z,7.00
2019-02-26T09:39:46.637Z,7.30
2019-02-26T09:42:13.066Z,7.70
2019-02-26T09:44:39.512Z,7.90
2019-02-26T09:47:07.552Z,7.90
2019-02-26T09:49:35.738Z,7.90
2019-02-26T09:52:04.027Z,8.10
2019-02-26T09:54:30.532Z,8.10
2019-02-26T09:56:56.978Z,8.30
2019-02-26T09:59:23.410Z,8.20
2019-02-26T10:01:50.056Z,8.40
2019-02-26T10:04:17.299Z,8.50
2019-02-26T10:06:44.912Z,8.70
2019-02-26T10:09:15.660Z,8.80
2019-02-26T10:11:42.491Z,8.90
2019-02-26T10:14:10.208Z,9.10
2019-02-26T10:16:37.830Z,9.10
2019-02-26T10:19:04.415Z,8.60
2019-02-26T10:21:33.099Z,8.80
2019-02-26T10:23:59.444Z,9.10
2019-02-26T10:26:30.518Z,9.60
2019-02-26T10:28:59.165Z,9.50
2019-02-26T10:31:25.044Z,9.80
2019-02-26T10:33:52.146Z,10.20
2019-02-26T10:36:18.714Z,10.50
2019-02-26T10:38:45.170Z,10.70
2019-02-26T10:41:11.602Z,10.90
2019-02-26T10:43:39.967Z,11.10
2019-02-26T10:46:06.307Z,11.20
2019-02-26T10:48:33.746Z,11.50
2019-02-26T10:51:00.592Z,11.60
2019-02-26T10:53:27.621Z,11.60
2019-02-26T10:55:54.110Z,11.20
2019-02-26T10:58:20.675Z,11.30
2019-02-26T11:00:52.080Z,11.90
2019-02-26T11:03:18.202Z,12.00
2019-02-26T11:05:48.795Z,12.50
2019-02-26T11:08:13.842Z,12.30
2019-02-26T11:10:43.916Z,12.50
2019-02-26T11:13:08.658Z,12.80
2019-02-26T11:15:36.014Z,12.80
2019-02-26T11:18:02.791Z,13.10
2019-02-26T11:20:30.957Z,13.70
2019-02-26T11:22:57.543Z,14.00
2019-02-26T11:25:26.871Z,14.10
2019-02-26T11:27:52.533Z,14.10
2019-02-26T11:30:28.588Z,14.00
2019-02-26T11:32:56.008Z,14.00
2019-02-26T11:35:24.505Z,14.00
2019-02-26T11:37:52.265Z,14.10
2019-02-26T11:40:29.650Z,14.50
2019-02-26T11:42:53.992Z,14.50
2019-02-26T11:45:21.752Z,15.30
2019-02-26T11:47:48.226Z,16.90
2019-02-26T11:50:26.961Z,18.90
2019-02-26T11:52:54.239Z,18.70
2019-02-26T11:55:19.222Z,18.30
2019-02-26T11:57:47.915Z,19.50
2019-02-26T12:00:25.493Z,18.10
2019-02-26T12:02:47.188Z,16.00
2019-02-26T12:05:13.712Z,15.80
2019-02-26T12:07:40.169Z,16.00
2019-02-26T12:10:12.377Z,16.20
2019-02-26T12:12:38.877Z,17.00
2019-02-26T12:15:15.210Z,20.10
2019-02-26T12:17:42.196Z,23.30
2019-02-26T12:20:12.131Z,22.80
2019-02-26T12:22:41.082Z,22.90
2019-02-26T12:25:14.516Z,22.10
2019-02-26T12:27:43.229Z,26.00
2019-02-26T12:30:13.335Z,27.70
2019-02-26T12:32:41.685Z,26.50
2019-02-26T12:35:12.011Z,26.10
2019-02-26T12:37:37.681Z,24.40
2019-02-26T12:40:10.321Z,25.60
2019-02-26T12:42:36.133Z,26.00
2019-02-26T12:45:06.931Z,26.50
2019-02-26T12:47:32.861Z,27.40
2019-02-26T12:50:01.662Z,26.20
2019-02-26T12:52:30.214Z,27.00
2019-02-26T12:54:57.827Z,24.50
2019-02-26T12:57:26.951Z,23.50
2019-02-26T12:59:52.395Z,25.20
2019-02-26T13:02:20.637Z,26.50
2019-02-26T13:04:48.073Z,28.30
2019-02-26T13:07:15.372Z,28.10
2019-02-26T13:09:50.410Z,28.00
2019-02-26T13:12:12.670Z,31.00
2019-02-26T13:14:38.390Z,31.30
2019-02-26T13:17:04.872Z,28.10
2019-02-26T13:19:33.424Z,27.50
2019-02-26T13:22:05.153Z,27.40
2019-02-26T13:24:29.018Z,27.30
2019-02-26T13:26:59.275Z,26.00
2019-02-26T13:29:23.743Z,26.50
2019-02-26T13:31:56.268Z,29.50
2019-02-26T13:34:18.544Z,27.90
2019-02-26T13:36:52.253Z,27.70
2019-02-26T13:39:21.841Z,29.40
2019-02-26T13:41:42.066Z,29.20
2019-02-26T13:44:08.615Z,30.80
2019-02-26T13:46:35.177Z,29.80
2019-02-26T13:49:01.756Z,31.30
2019-02-26T13:51:29.289Z,30.80
2019-02-26T13:53:55.772Z,31.40
2019-02-26T13:56:22.223Z,29.00
2019-02-26T13:58:48.686Z,28.40
2019-02-26T14:01:15.230Z,29.00
2019-02-26T14:03:41.838Z,28.60
2019-02-26T14:06:08.473Z,28.80
2019-02-26T14:08:34.940Z,28.30
2019-02-26T14:11:01.506Z,28.40
2019-02-26T14:13:28.953Z,28.10
2019-02-26T14:15:55.419Z,27.60
2019-02-26T14:18:21.877Z,27.90
2019-02-26T14:20:48.300Z,28.40
2019-02-26T14:23:14.753Z,29.20
2019-02-26T14:25:41.510Z,29.70
2019-02-26T14:28:07.946Z,29.80
2019-02-26T14:30:34.502Z,28.90
2019-02-26T14:33:00.973Z,29.30
2019-02-26T14:35:27.456Z,29.40
2019-02-26T14:37:53.921Z,29.70
2019-02-26T14:40:20.592Z,27.70
2019-02-26T14:42:47.476Z,29.00
2019-02-26T14:45:15.543Z,28.90
2019-02-26T14:47:42.193Z,26.80
2019-02-26T14:50:17.212Z,28.70
2019-02-26T14:52:43.870Z,27.70
2019-02-26T14:55:12.208Z,27.10
2019-02-26T14:57:38.654Z,27.40
2019-02-26T15:00:08.890Z,26.60
2019-02-26T15:02:37.255Z,24.40
2019-02-26T15:05:04.507Z,22.80
2019-02-26T15:07:30.997Z,21.50
2019-02-26T15:09:57.428Z,21.60
2019-02-26T15:12:23.893Z,21.40
2019-02-26T15:14:50.360Z,21.10
2019-02-26T15:17:16.793Z,20.80
2019-02-26T15:19:50.180Z,20.30
2019-02-26T15:22:11.525Z,20.00
2019-02-26T15:24:38.064Z,19.70
2019-02-26T15:27:04.495Z,19.40
2019-02-26T15:29:30.933Z,19.10
2019-02-26T15:31:57.378Z,18.80
2019-02-26T15:34:23.819Z,18.70
2019-02-26T15:36:50.368Z,18.40
2019-02-26T15:39:16.869Z,18.30
2019-02-26T15:41:43.337Z,18.30
2019-02-26T15:44:11.858Z,17.90
2019-02-26T15:46:38.453Z,17.90
2019-02-26T15:49:07.530Z,17.50
2019-02-26T15:51:33.174Z,17.00
2019-02-26T15:53:59.624Z,17.10
2019-02-26T15:56:29.366Z,17.10
2019-02-26T15:58:54.305Z,16.90
2019-02-26T16:01:20.760Z,17.00
2019-02-26T16:03:47.226Z,17.00
2019-02-26T16:06:13.903Z,16.40
2019-02-26T16:08:41.278Z,16.20
2019-02-26T16:11:08.819Z,16.20
2019-02-26T16:13:35.256Z,16.30
2019-02-26T16:16:01.762Z,16.00
2019-02-26T16:18:29.583Z,15.40
2019-02-26T16:20:57.600Z,15.10
2019-02-26T16:23:24.027Z,15.30
2019-02-26T16:25:50.506Z,15.30
2019-02-26T16:28:16.962Z,15.10
2019-02-26T16:30:43.453Z,15.30
2019-02-26T16:33:11.241Z,15.40
2019-02-26T16:35:38.177Z,15.40
2019-02-26T16:38:04.615Z,15.20
2019-02-26T16:40:32.225Z,14.80
2019-02-26T16:42:58.936Z,14.60
2019-02-26T16:45:26.524Z,14.70
2019-02-26T16:47:53.114Z,14.40
2019-02-26T16:50:23.485Z,14.10
2019-02-26T16:52:49.914Z,14.00
2019-02-26T16:55:17.271Z,14.10
2019-02-26T16:57:44.332Z,13.80
2019-02-26T17:00:16.390Z,13.60
2019-02-26T17:02:43.238Z,13.70
2019-02-26T17:05:14.293Z,13.60
2019-02-26T17:07:38.570Z,13.70
2019-02-26T17:10:09.045Z,13.80
2019-02-26T17:12:35.621Z,13.60
2019-02-26T17:15:05.017Z,13.40
2019-02-26T17:17:31.838Z,13.40
2019-02-26T17:19:58.400Z,13.50
2019-02-26T17:22:24.846Z,13.30
2019-02-26T17:24:53.267Z,13.10
2019-02-26T17:27:19.762Z,13.00
2019-02-26T17:29:49.413Z,13.10
2019-02-26T17:32:14.745Z,12.90
2019-02-26T17:34:41.230Z,12.40
2019-02-26T17:37:08.508Z,12.50
2019-02-26T17:39:35.535Z,12.70
2019-02-26T17:42:02.200Z,12.60
2019-02-26T17:44:29.753Z,12.60
2019-02-26T17:46:56.246Z,12.50
2019-02-26T17:49:22.804Z,12.50
2019-02-26T17:51:49.267Z,12.50
2019-02-26T17:54:16.035Z,12.50
2019-02-26T17:56:42.498Z,12.60
2019-02-26T17:59:08.967Z,12.50
2019-02-26T18:01:35.532Z,12.50
2019-02-26T18:04:02.002Z,12.50
2019-02-26T18:06:28.546Z,12.50
2019-02-26T18:08:56.436Z,12.40
2019-02-26T18:11:23.693Z,12.20
2019-02-26T18:13:50.654Z,12.10
2019-02-26T18:16:17.143Z,12.20
2019-02-26T18:18:43.734Z,12.20
2019-02-26T18:21:10.181Z,12.00
2019-02-26T18:23:45.874Z,12.00
2019-02-26T18:26:12.428Z,11.80
2019-02-26T18:28:39.019Z,11.80
2019-02-26T18:31:05.543Z,11.90
2019-02-26T18:33:35.323Z,11.90
2019-02-26T18:36:00.592Z,11.90
2019-02-26T18:38:27.164Z,11.80
2019-02-26T18:40:54.029Z,11.60
2019-02-26T18:43:20.525Z,11.30
2019-02-26T18:45:47.301Z,11.00
2019-02-26T18:48:15.078Z,10.70
2019-02-26T18:50:42.348Z,10.70
2019-02-26T18:53:08.937Z,10.80
2019-02-26T18:55:35.541Z,10.80
2019-02-26T18:58:01.942Z,10.40
2019-02-26T19:00:32.889Z,10.30
2019-02-26T19:02:59.668Z,10.20
2019-02-26T19:05:26.244Z,10.00
2019-02-26T19:07:52.826Z,9.60
2019-02-26T19:10:20.922Z,9.80
2019-02-26T19:12:47.949Z,9.90
2019-02-26T19:15:20.125Z,9.90
2019-02-26T19:17:48.180Z,10.00
2019-02-26T19:20:24.051Z,10.00
2019-02-26T19:22:52.024Z,10.30
2019-02-26T19:25:18.698Z,10.10
2019-02-26T19:27:45.301Z,9.80
2019-02-26T19:30:17.613Z,9.70
2019-02-26T19:32:47.582Z,9.60
2019-02-26T19:35:12.916Z,9.20
2019-02-26T19:37:40.515Z,9.20
2019-02-26T19:40:17.970Z,9.00
2019-02-26T19:42:44.825Z,8.90
2019-02-26T19:45:11.900Z,8.90
2019-02-26T19:47:38.752Z,8.90
2019-02-26T19:50:11.620Z,8.80
2019-02-26T19:52:37.167Z,8.40
2019-02-26T19:55:15.677Z,8.60
2019-02-26T19:57:42.838Z,8.40
2019-02-26T20:00:12.811Z,8.10
2019-02-26T20:02:39.376Z,7.80
2019-02-26T20:05:09.520Z,7.90
2019-02-26T20:07:36.643Z,8.10
2019-02-26T20:10:15.204Z,8.10
2019-02-26T20:12:43.099Z,8.10
2019-02-26T20:15:13.117Z,8.10
2019-02-26T20:17:39.546Z,8.00
2019-02-26T20:20:12.192Z,7.90
2019-02-26T20:22:38.723Z,7.80
2019-02-26T20:25:15.023Z,7.90
2019-02-26T20:27:41.757Z,8.00
2019-02-26T20:30:13.692Z,8.20
2019-02-26T20:32:40.234Z,8.10
2019-02-26T20:35:11.619Z,8.00
2019-02-26T20:37:37.481Z,7.70
2019-02-26T20:40:10.745Z,7.70
2019-02-26T20:42:37.263Z,7.50
2019-02-26T20:45:07.217Z,7.30
2019-02-26T20:47:33.799Z,7.30
2019-02-26T20:50:00.269Z,7.20
2019-02-26T20:52:26.728Z,7.10
2019-02-26T20:54:53.292Z,7.30
2019-02-26T20:57:19.794Z,7.50
2019-02-26T20:59:46.247Z,7.40
2019-02-26T21:02:12.837Z,7.40
2019-02-26T21:04:39.281Z,7.40
2019-02-26T21:07:05.858Z,7.30
2019-02-26T21:09:33.398Z,7.40
2019-02-26T21:11:59.841Z,7.40
2019-02-26T21:14:26.379Z,7.20
2019-02-26T21:16:53.610Z,7.20
2019-02-26T21:19:20.468Z,7.10
2019-02-26T21:21:49.121Z,7.20
2019-02-26T21:24:15.256Z,7.30
2019-02-26T21:26:41.794Z,7.20
2019-02-26T21:29:08.279Z,6.70
2019-02-26T21:31:34.731Z,6.60
2019-02-26T21:34:03.731Z,6.70
2019-02-26T21:36:29.554Z,6.80
2019-02-26T21:38:56.026Z,6.90
2019-02-26T21:41:23.487Z,6.90
2019-02-26T21:43:50.612Z,6.80
2019-02-26T21:46:17.090Z,6.80
2019-02-26T21:48:43.559Z,6.90
2019-02-26T21:51:10.526Z,6.80
2019-02-26T21:53:39.827Z,6.50
2019-02-26T21:56:06.205Z,6.20
2019-02-26T21:58:32.653Z,6.20
2019-02-26T22:00:59.145Z,6.30
2019-02-26T22:03:25.565Z,6.30
2019-02-26T22:05:52.097Z,6.10
2019-02-26T22:08:18.541Z,5.90
2019-02-26T22:10:44.973Z,5.70
2019-02-26T22:13:11.396Z,5.60
2019-02-26T22:15:37.841Z,5.40
2019-02-26T22:18:04.276Z,5.50
2019-02-26T22:20:36.321Z,5.60
2019-02-26T22:23:00.453Z,5.60
2019-02-26T22:25:27.218Z,5.60
2019-02-26T22:27:53.668Z,5.70
2019-02-26T22:30:22.125Z,5.90
2019-02-26T22:32:48.599Z,5.60
2019-02-26T22:35:15.144Z,5.00
2019-02-26T22:37:42.097Z,5.10
2019-02-26T22:40:11.056Z,5.00
2019-02-26T22:42:38.804Z,4.60
2019-02-26T22:45:08.485Z,4.70
2019-02-26T22:47:40.139Z,5.00
2019-02-26T22:50:07.927Z,5.20
2019-02-26T22:52:34.606Z,5.40
2019-02-26T22:55:01.020Z,5.40
2019-02-26T22:57:27.579Z,5.30
2019-02-26T22:59:55.728Z,5.10
2019-02-26T23:02:22.978Z,5.00
2019-02-26T23:04:52.523Z,4.40
2019-02-26T23:07:18.306Z,4.30
2019-02-26T23:09:45.135Z,4.50
2019-02-26T23:12:12.263Z,4.70
2019-02-26T23:14:39.420Z,4.50
2019-02-26T23:17:08.445Z,4.00
2019-02-26T23:19:36.597Z,3.80
2019-02-26T23:22:03.829Z,3.80
2019-02-26T23:24:30.959Z,3.70
2019-02-26T23:26:57.388Z,3.80
2019-02-26T23:29:27.805Z,4.00
2019-02-26T23:31:52.380Z,3.80
2019-02-26T23:34:21.651Z,3.90
2019-02-26T23:36:47.170Z,3.90
2019-02-26T23:39:14.016Z,3.20
2019-02-26T23:41:42.440Z,3.50
2019-02-26T23:44:08.984Z,4.00
2019-02-26T23:46:35.613Z,3.80
2019-02-26T23:49:03.048Z,3.40
2019-02-26T23:51:29.584Z,3.30
2019-02-26T23:53:56.473Z,3.20
2019-02-26T23:56:22.915Z,3.30
2019-02-26T23:58:49.458Z,3.60
